Wetterdaten: Mittwoch, 04.12.2013
Datum Zeit Temperatur Luftfeuchte Luftdruck Regen Wind Richtung Richtung Taupunkt Windchill Windben
04.12.2013 00:05 -5,8 C 92 % 1025,2 hPa 0,0 l/m 0,0 km/h (0 Bft) NO 45 -6,9 C -5,5 C 0,0 km/h (0 Bft)
04.12.2013 00:10 -6,1 C 92 % 1025,2 hPa 0,0 l/m 0,0 km/h (0 Bft) NO 45 -7,2 C -5,5 C 0,0 km/h (0 Bft)
04.12.2013 00:16 -6,2 C 92 % 1025,2 hPa 0,0 l/m 0,0 km/h (0 Bft) NO 45 -7,3 C -5,7 C 0,0 km/h (0 Bft)
04.12.2013 00:20 -6,2 C 91 % 1025,2 hPa 0,0 l/m 0,0 km/h (0 Bft) NW 315 -7,4 C -5,7 C 1,8 km/h (1 Bft)
04.12.2013 00:27 -5,1 C 92 % 1025,2 hPa 0,0 l/m 0,6 km/h (0 Bft) O-SO 112 -6,2 C -5,8 C 0,0 km/h (0 Bft)
04.12.2013 00:30 -5,7 C 92 % 1025,2 hPa 0,0 l/m 0,8 km/h (0 Bft) O 90 -6,8 C -5,4 C 1,6 km/h (1 Bft)
04.12.2013 00:38 -4,7 C 92 % 1025,2 hPa 0,0 l/m 0,8 km/h (0 Bft) O-SO 112 -5,8 C -4,9 C 3,2 km/h (1 Bft)
04.12.2013 00:40 -4,7 C 92 % 1025,2 hPa 0,0 l/m 0,8 km/h (0 Bft) O-SO 112 -5,8 C -4,9 C 3,2 km/h (1 Bft)
04.12.2013 00:49 -4,9 C 92 % 1025,1 hPa 0,0 l/m 1,1 km/h (1 Bft) NO 45 -6,0 C -4,9 C 6,8 km/h (2 Bft)
04.12.2013 00:50 -4,9 C 92 % 1025,1 hPa 0,0 l/m 1,1 km/h (1 Bft) NO 45 -6,0 C -4,9 C 0,0 km/h (0 Bft)
04.12.2013 00:59 -4,4 C 93 % 1025,1 hPa 0,0 l/m 0,8 km/h (0 Bft) O-NO 67 -5,4 C -5,0 C 2,6 km/h (1 Bft)
04.12.2013 01:00 -4,4 C 93 % 1025,1 hPa 0,0 l/m 0,8 km/h (0 Bft) O-NO 67 -5,4 C -5,0 C 2,6 km/h (1 Bft)
04.12.2013 01:10 -5,9 C 92 % 1024,9 hPa 0,0 l/m 0,3 km/h (0 Bft) SO 135 -7,0 C -5,0 C 1,8 km/h (1 Bft)
04.12.2013 01:15 -6,1 C 92 % 1024,9 hPa 0,0 l/m 0,2 km/h (0 Bft) O-SO 112 -7,2 C -5,2 C 0,0 km/h (0 Bft)
04.12.2013 01:21 -5,8 C 92 % 1024,9 hPa 0,0 l/m 0,2 km/h (0 Bft) O-SO 112 -6,9 C -5,4 C 0,0 km/h (0 Bft)
04.12.2013 01:25 -6,3 C 91 % 1024,8 hPa 0,0 l/m 0,0 km/h (0 Bft) NO 45 -7,5 C -5,8 C 0,0 km/h (0 Bft)
04.12.2013 01:32 -4,8 C 92 % 1024,8 hPa 0,0 l/m 0,8 km/h (0 Bft) NO 45 -5,9 C -6,0 C 6,1 km/h (2 Bft)
04.12.2013 01:35 -4,8 C 92 % 1024,8 hPa 0,0 l/m 0,8 km/h (0 Bft) NO 45 -5,9 C -6,0 C 6,1 km/h (2 Bft)
04.12.2013 01:43 -3,9 C 92 % 1024,7 hPa 0,0 l/m 3,1 km/h (1 Bft) O 90 -5,0 C -6,0 C 3,5 km/h (1 Bft)
04.12.2013 01:45 -3,9 C 92 % 1024,7 hPa 0,0 l/m 3,1 km/h (1 Bft) O 90 -5,0 C -6,0 C 3,5 km/h (1 Bft)
04.12.2013 01:54 -5,4 C 92 % 1024,7 hPa 0,0 l/m 1,4 km/h (1 Bft) NO 45 -6,5 C -5,4 C 2,7 km/h (1 Bft)
04.12.2013 01:55 -5,4 C 92 % 1024,7 hPa 0,0 l/m 1,4 km/h (1 Bft) NO 45 -6,5 C -5,4 C 2,7 km/h (1 Bft)
04.12.2013 02:05 -6,1 C 92 % 1024,8 hPa 0,0 l/m 0,5 km/h (0 Bft) NO 45 -7,2 C -5,9 C 2,1 km/h (1 Bft)
04.12.2013 02:10 -5,5 C 92 % 1024,8 hPa 0,0 l/m 1,0 km/h (0 Bft) W-NW 292 -6,6 C -5,8 C 2,3 km/h (1 Bft)
04.12.2013 02:16 -6,6 C 91 % 1024,8 hPa 0,0 l/m 1,0 km/h (0 Bft) W-NW 292 -7,8 C -6,2 C 0,0 km/h (0 Bft)
04.12.2013 02:20 -6,6 C 91 % 1024,8 hPa 0,0 l/m 0,5 km/h (0 Bft) N 360 -7,8 C -6,3 C 2,4 km/h (1 Bft)
04.12.2013 02:27 -4,9 C 92 % 1024,7 hPa 0,0 l/m 0,8 km/h (0 Bft) NO 45 -6,0 C -5,8 C 0,0 km/h (0 Bft)
04.12.2013 02:30 -4,9 C 92 % 1024,7 hPa 0,0 l/m 0,8 km/h (0 Bft) NO 45 -6,0 C -5,8 C 0,0 km/h (0 Bft)
04.12.2013 02:38 -6,0 C 91 % 1024,7 hPa 0,0 l/m 0,2 km/h (0 Bft) S 180 -7,2 C -6,1 C 2,1 km/h (1 Bft)
04.12.2013 02:40 -6,0 C 91 % 1024,7 hPa 0,0 l/m 0,2 km/h (0 Bft) S 180 -7,2 C -6,1 C 2,1 km/h (1 Bft)
04.12.2013 02:49 -6,7 C 91 % 1024,8 hPa 0,0 l/m 0,2 km/h (0 Bft) O-NO 67 -7,9 C -6,2 C 0,0 km/h (0 Bft)
04.12.2013 02:50 -6,7 C 91 % 1024,8 hPa 0,0 l/m 0,2 km/h (0 Bft) O-NO 67 -7,9 C -6,2 C 0,0 km/h (0 Bft)
04.12.2013 03:00 -6,3 C 91 % 1024,8 hPa 0,0 l/m 0,8 km/h (0 Bft) W-SW 247 -7,5 C -6,3 C 0,0 km/h (0 Bft)
04.12.2013 03:05 -6,7 C 90 % 1024,7 hPa 0,0 l/m 0,3 km/h (0 Bft) W-SW 247 -8,1 C -6,4 C 0,0 km/h (0 Bft)
04.12.2013 03:11 -6,9 C 90 % 1024,7 hPa 0,0 l/m 0,0 km/h (0 Bft) W-SW 247 -8,3 C -6,5 C 0,0 km/h (0 Bft)
04.12.2013 03:15 -7,2 C 90 % 1024,7 hPa 0,0 l/m 0,0 km/h (0 Bft) W-SW 247 -8,6 C -6,8 C 0,0 km/h (0 Bft)
04.12.2013 03:22 -6,9 C 89 % 1024,4 hPa 0,0 l/m 0,0 km/h (0 Bft) W-SW 247 -8,4 C -6,7 C 1,8 km/h (1 Bft)
04.12.2013 03:25 -6,9 C 89 % 1024,4 hPa 0,0 l/m 0,0 km/h (0 Bft) W-SW 247 -8,4 C -6,7 C 1,8 km/h (1 Bft)
04.12.2013 03:33 -5,3 C 90 % 1024,4 hPa 0,0 l/m 1,4 km/h (1 Bft) SO 135 -6,7 C -6,5 C 4,7 km/h (1 Bft)
04.12.2013 03:35 -5,3 C 90 % 1024,4 hPa 0,0 l/m 1,4 km/h (1 Bft) SO 135 -6,7 C -6,5 C 4,7 km/h (1 Bft)
04.12.2013 03:44 -4,9 C 91 % 1024,3 hPa 0,0 l/m 3,4 km/h (1 Bft) O-SO 112 -6,1 C -6,9 C 5,5 km/h (1 Bft)
04.12.2013 03:45 -4,9 C 91 % 1024,3 hPa 0,0 l/m 3,4 km/h (1 Bft) O-SO 112 -6,1 C -6,9 C 5,5 km/h (1 Bft)
04.12.2013 03:55 -3,7 C 92 % 1024,3 hPa 0,0 l/m 4,8 km/h (1 Bft) NO 45 -4,8 C -7,1 C 7,6 km/h (2 Bft)
04.12.2013 04:00 -3,8 C 92 % 1024,3 hPa 0,0 l/m 6,0 km/h (2 Bft) O 90 -4,9 C -6,9 C 6,9 km/h (2 Bft)
04.12.2013 04:06 -4,8 C 92 % 1024,2 hPa 0,0 l/m 4,2 km/h (1 Bft) NO 45 -5,9 C -6,1 C 0,0 km/h (0 Bft)
04.12.2013 04:10 -5,8 C 92 % 1024,2 hPa 0,0 l/m 2,1 km/h (1 Bft) O-NO 67 -6,9 C -5,1 C 0,0 km/h (0 Bft)
04.12.2013 04:17 -5,0 C 92 % 1024,2 hPa 0,0 l/m 0,5 km/h (0 Bft) N-NO 22 -6,1 C -5,6 C 0,0 km/h (0 Bft)
04.12.2013 04:20 -4,3 C 92 % 1024,2 hPa 0,0 l/m 1,8 km/h (1 Bft) NO 45 -5,4 C -5,7 C 3,7 km/h (1 Bft)
04.12.2013 04:28 -6,4 C 92 % 1024,1 hPa 0,0 l/m 0,6 km/h (0 Bft) NO 45 -7,5 C -6,1 C 1,8 km/h (1 Bft)
04.12.2013 04:30 -6,4 C 92 % 1024,1 hPa 0,0 l/m 0,6 km/h (0 Bft) NO 45 -7,5 C -6,1 C 1,8 km/h (1 Bft)
04.12.2013 04:39 -5,4 C 92 % 1024,1 hPa 0,0 l/m 0,8 km/h (0 Bft) O-SO 112 -6,5 C -6,1 C 3,4 km/h (1 Bft)
04.12.2013 04:40 -5,4 C 92 % 1024,1 hPa 0,0 l/m 0,8 km/h (0 Bft) O-SO 112 -6,5 C -6,1 C 3,4 km/h (1 Bft)
04.12.2013 04:50 -3,8 C 93 % 1024,3 hPa 0,0 l/m 5,0 km/h (1 Bft) O 90 -4,8 C -7,5 C 8,5 km/h (2 Bft)
04.12.2013 04:55 -4,2 C 93 % 1024,3 hPa 0,0 l/m 5,1 km/h (1 Bft) NO 45 -5,2 C -7,3 C 9,0 km/h (2 Bft)
04.12.2013 05:01 -4,2 C 93 % 1024,3 hPa 0,0 l/m 4,3 km/h (1 Bft) O-SO 112 -5,2 C -6,9 C 4,3 km/h (1 Bft)
04.12.2013 05:05 -5,2 C 92 % 1024,3 hPa 0,0 l/m 2,1 km/h (1 Bft) NO 45 -6,3 C -5,4 C 1,9 km/h (1 Bft)
04.12.2013 05:12 -4,8 C 93 % 1024,3 hPa 0,0 l/m 1,6 km/h (1 Bft) O 90 -5,8 C -5,6 C 7,6 km/h (2 Bft)
04.12.2013 05:15 -4,3 C 93 % 1024,3 hPa 0,0 l/m 4,2 km/h (1 Bft) NO 45 -5,3 C -7,2 C 3,1 km/h (1 Bft)
04.12.2013 05:23 -6,4 C 92 % 1023,9 hPa 0,0 l/m 0,3 km/h (0 Bft) N-NO 22 -7,5 C -6,1 C 0,0 km/h (0 Bft)
04.12.2013 05:25 -6,4 C 92 % 1023,9 hPa 0,0 l/m 0,3 km/h (0 Bft) N-NO 22 -7,5 C -6,1 C 0,0 km/h (0 Bft)
04.12.2013 05:34 -5,9 C 91 % 1023,9 hPa 0,0 l/m 0,3 km/h (0 Bft) N-NO 22 -7,1 C -6,5 C 0,0 km/h (0 Bft)
04.12.2013 05:35 -5,9 C 91 % 1023,9 hPa 0,0 l/m 0,3 km/h (0 Bft) N-NO 22 -7,1 C -6,5 C 0,0 km/h (0 Bft)
04.12.2013 05:45 -6,7 C 91 % 1024,0 hPa 0,0 l/m 0,0 km/h (0 Bft) N-NO 22 -7,9 C -6,6 C 0,0 km/h (0 Bft)
04.12.2013 05:48 -7,0 C 90 % 1024,0 hPa 0,0 l/m 0,0 km/h (0 Bft) N-NO 22 -8,4 C -6,8 C 0,0 km/h (0 Bft)
04.12.2013 05:55 -7,0 C 90 % 1024,0 hPa 0,0 l/m 0,0 km/h (0 Bft) N-NO 22 -8,4 C -6,9 C 0,0 km/h (0 Bft)
04.12.2013 06:00 -6,8 C 90 % 1024,0 hPa 0,0 l/m 0,3 km/h (0 Bft) NO 45 -8,2 C -7,0 C 3,9 km/h (1 Bft)
04.12.2013 06:06 -4,6 C 91 % 1024,0 hPa 0,0 l/m 3,5 km/h (1 Bft) O 90 -5,8 C -7,7 C 7,6 km/h (2 Bft)
04.12.2013 06:10 -4,8 C 91 % 1024,0 hPa 0,0 l/m 4,7 km/h (1 Bft) N-NO 22 -6,0 C -7,5 C 1,9 km/h (1 Bft)
04.12.2013 06:17 -4,7 C 91 % 1024,0 hPa 0,0 l/m 2,4 km/h (1 Bft) N-NO 22 -5,9 C -5,7 C 0,0 km/h (0 Bft)
04.12.2013 06:20 -4,7 C 91 % 1024,0 hPa 0,0 l/m 2,4 km/h (1 Bft) N-NO 22 -5,9 C -5,7 C 0,0 km/h (0 Bft)
04.12.2013 06:28 -6,3 C 91 % 1023,9 hPa 0,0 l/m 0,3 km/h (0 Bft) N-NO 22 -7,5 C -5,8 C 0,0 km/h (0 Bft)
04.12.2013 06:30 -6,3 C 91 % 1023,9 hPa 0,0 l/m 0,3 km/h (0 Bft) N-NO 22 -7,5 C -5,8 C 0,0 km/h (0 Bft)
04.12.2013 06:39 -6,7 C 90 % 1023,9 hPa 0,0 l/m 0,2 km/h (0 Bft) N 360 -8,1 C -6,5 C 0,0 km/h (0 Bft)
04.12.2013 06:40 -6,7 C 90 % 1023,9 hPa 0,0 l/m 0,2 km/h (0 Bft) N 360 -8,1 C -6,5 C 0,0 km/h (0 Bft)
04.12.2013 06:50 -6,2 C 90 % 1023,9 hPa 0,0 l/m 0,5 km/h (0 Bft) O-SO 112 -7,6 C -6,7 C 1,9 km/h (1 Bft)
04.12.2013 06:55 -7,0 C 90 % 1023,9 hPa 0,0 l/m 0,3 km/h (0 Bft) NW 315 -8,4 C -6,8 C 0,0 km/h (0 Bft)
04.12.2013 07:01 -6,9 C 90 % 1023,9 hPa 0,0 l/m 0,5 km/h (0 Bft) N-NO 22 -8,3 C -7,0 C 0,0 km/h (0 Bft)
04.12.2013 07:05 -6,5 C 90 % 1023,9 hPa 0,0 l/m 0,6 km/h (0 Bft) SO 135 -7,9 C -7,0 C 2,1 km/h (1 Bft)
04.12.2013 07:12 -7,2 C 89 % 1023,9 hPa 0,0 l/m 1,3 km/h (1 Bft) N 360 -8,7 C -7,0 C 0,0 km/h (0 Bft)
04.12.2013 07:15 -7,2 C 89 % 1023,9 hPa 0,0 l/m 1,3 km/h (1 Bft) N 360 -8,7 C -7,0 C 0,0 km/h (0 Bft)
04.12.2013 07:23 -6,9 C 89 % 1023,8 hPa 0,0 l/m 0,6 km/h (0 Bft) NO 45 -8,4 C -7,1 C 0,0 km/h (0 Bft)
04.12.2013 07:25 -6,9 C 89 % 1023,8 hPa 0,0 l/m 0,6 km/h (0 Bft) NO 45 -8,4 C -7,1 C 0,0 km/h (0 Bft)
04.12.2013 07:34 -6,8 C 89 % 1023,8 hPa 0,0 l/m 0,5 km/h (0 Bft) N 360 -8,3 C -6,7 C 0,0 km/h (0 Bft)
04.12.2013 07:35 -6,8 C 89 % 1023,8 hPa 0,0 l/m 0,5 km/h (0 Bft) N 360 -8,3 C -6,7 C 0,0 km/h (0 Bft)
04.12.2013 07:45 -6,3 C 90 % 1024,1 hPa 0,0 l/m 0,8 km/h (0 Bft) N-NW 337 -7,7 C -6,5 C 0,0 km/h (0 Bft)
04.12.2013 07:50 -6,4 C 89 % 1024,1 hPa 0,0 l/m 1,0 km/h (0 Bft) NO 45 -7,9 C -6,3 C 0,0 km/h (0 Bft)
04.12.2013 07:56 -6,7 C 89 % 1024,1 hPa 0,0 l/m 0,3 km/h (0 Bft) NO 45 -8,2 C -6,0 C 0,0 km/h (0 Bft)
04.12.2013 08:00 -6,5 C 89 % 1024,1 hPa 0,0 l/m 0,0 km/h (0 Bft) N 360 -8,0 C -6,0 C 0,0 km/h (0 Bft)
04.12.2013 08:07 -6,2 C 90 % 1024,4 hPa 0,0 l/m 0,3 km/h (0 Bft) N-NW 337 -7,6 C -6,0 C 2,1 km/h (1 Bft)
04.12.2013 08:10 -6,2 C 90 % 1024,4 hPa 0,0 l/m 0,3 km/h (0 Bft) N-NW 337 -7,6 C -6,0 C 2,1 km/h (1 Bft)
04.12.2013 08:18 -6,3 C 90 % 1024,4 hPa 0,0 l/m 0,2 km/h (0 Bft) N-NO 22 -7,7 C -6,0 C 0,0 km/h (0 Bft)
04.12.2013 08:20 -6,3 C 90 % 1024,4 hPa 0,0 l/m 0,2 km/h (0 Bft) N-NO 22 -7,7 C -6,0 C 0,0 km/h (0 Bft)
04.12.2013 08:29 -5,7 C 90 % 1024,1 hPa 0,0 l/m 0,5 km/h (0 Bft) N-NW 337 -7,1 C -5,6 C 0,0 km/h (0 Bft)
04.12.2013 08:30 -5,7 C 90 % 1024,1 hPa 0,0 l/m 0,5 km/h (0 Bft) N-NW 337 -7,1 C -5,6 C 0,0 km/h (0 Bft)
04.12.2013 08:40 -5,5 C 90 % 1024,1 hPa 0,0 l/m 0,6 km/h (0 Bft) S-SO 157 -6,9 C -5,1 C 3,1 km/h (1 Bft)
04.12.2013 08:45 -5,5 C 90 % 1024,1 hPa 0,0 l/m 0,5 km/h (0 Bft) N 360 -6,9 C -5,0 C 0,0 km/h (0 Bft)
04.12.2013 08:51 -5,3 C 90 % 1024,1 hPa 0,0 l/m 0,3 km/h (0 Bft) N 360 -6,7 C -4,9 C 0,0 km/h (0 Bft)
04.12.2013 08:55 -5,0 C 90 % 1024,1 hPa 0,0 l/m 0,2 km/h (0 Bft) N 360 -6,4 C -4,9 C 0,0 km/h (0 Bft)
04.12.2013 09:02 -5,1 C 91 % 1024,1 hPa 0,0 l/m 0,0 km/h (0 Bft) N 360 -6,3 C -4,7 C 0,0 km/h (0 Bft)
04.12.2013 09:05 -4,8 C 91 % 1024,1 hPa 0,0 l/m 0,2 km/h (0 Bft) NO 45 -6,0 C -4,5 C 0,0 km/h (0 Bft)
04.12.2013 09:13 -4,5 C 91 % 1024,1 hPa 0,0 l/m 0,3 km/h (0 Bft) N 360 -5,7 C -4,0 C 0,0 km/h (0 Bft)
04.12.2013 09:15 -4,5 C 91 % 1024,1 hPa 0,0 l/m 0,3 km/h (0 Bft) N 360 -5,7 C -4,0 C 0,0 km/h (0 Bft)
04.12.2013 09:24 -4,2 C 91 % 1024,2 hPa 0,0 l/m 0,0 km/h (0 Bft) N 360 -5,4 C -3,8 C 0,0 km/h (0 Bft)
04.12.2013 09:25 -4,2 C 91 % 1024,2 hPa 0,0 l/m 0,0 km/h (0 Bft) N 360 -5,4 C -3,8 C 0,0 km/h (0 Bft)
04.12.2013 09:35 -3,6 C 92 % 1024,2 hPa 0,0 l/m 0,0 km/h (0 Bft) N 360 -4,7 C -3,3 C 0,0 km/h (0 Bft)
04.12.2013 09:40 -3,4 C 92 % 1024,2 hPa 0,0 l/m 0,2 km/h (0 Bft) N 360 -4,5 C -3,1 C 0,0 km/h (0 Bft)
04.12.2013 09:46 -3,2 C 92 % 1024,2 hPa 0,0 l/m 0,3 km/h (0 Bft) N 360 -4,3 C -3,0 C 0,0 km/h (0 Bft)
04.12.2013 09:50 -3,2 C 92 % 1024,2 hPa 0,0 l/m 0,3 km/h (0 Bft) N 360 -4,3 C -2,8 C 2,1 km/h (1 Bft)
04.12.2013 09:57 -3,1 C 92 % 1024,2 hPa 0,0 l/m 0,3 km/h (0 Bft) N 360 -4,2 C -2,6 C 0,0 km/h (0 Bft)
04.12.2013 10:00 -2,9 C 92 % 1024,2 hPa 0,0 l/m 0,2 km/h (0 Bft) NO 45 -4,0 C -2,5 C 0,0 km/h (0 Bft)
04.12.2013 10:08 -2,5 C 93 % 1024,2 hPa 0,0 l/m 0,5 km/h (0 Bft) N-NW 337 -3,5 C -2,2 C 0,0 km/h (0 Bft)
04.12.2013 10:10 -2,5 C 93 % 1024,2 hPa 0,0 l/m 0,5 km/h (0 Bft) N-NW 337 -3,5 C -2,2 C 0,0 km/h (0 Bft)
04.12.2013 10:19 -2,3 C 93 % 1024,2 hPa 0,0 l/m 0,0 km/h (0 Bft) N 360 -3,3 C -1,8 C 0,0 km/h (0 Bft)
04.12.2013 10:20 -2,3 C 93 % 1024,2 hPa 0,0 l/m 0,0 km/h (0 Bft) N 360 -3,3 C -1,8 C 0,0 km/h (0 Bft)
04.12.2013 10:30 -2,0 C 93 % 1024,3 hPa 0,0 l/m 0,5 km/h (0 Bft) NO 45 -3,0 C -1,4 C 0,0 km/h (0 Bft)
04.12.2013 10:35 -2,0 C 93 % 1024,3 hPa 0,0 l/m 0,3 km/h (0 Bft) NO 45 -3,0 C -1,2 C 0,0 km/h (0 Bft)
04.12.2013 10:41 -1,9 C 93 % 1024,3 hPa 0,0 l/m 0,0 km/h (0 Bft) NO 45 -2,9 C -1,2 C 0,0 km/h (0 Bft)
04.12.2013 10:45 -1,7 C 93 % 1024,3 hPa 0,0 l/m 0,0 km/h (0 Bft) NO 45 -2,7 C -1,2 C 0,0 km/h (0 Bft)
04.12.2013 10:51 -1,7 C 93 % 1024,3 hPa 0,0 l/m 0,0 km/h (0 Bft) NO 45 -2,7 C -1,2 C 0,0 km/h (0 Bft)
04.12.2013 10:55 -1,5 C 94 % 1024,3 hPa 0,0 l/m 0,2 km/h (0 Bft) NO 45 -2,3 C -1,1 C 3,2 km/h (1 Bft)
04.12.2013 11:02 -0,5 C 94 % 1024,2 hPa 0,0 l/m 2,4 km/h (1 Bft) O-NO 67 -1,3 C -0,4 C 6,1 km/h (2 Bft)
04.12.2013 11:05 -0,5 C 94 % 1024,2 hPa 0,0 l/m 2,4 km/h (1 Bft) O-NO 67 -1,3 C -0,4 C 6,1 km/h (2 Bft)
04.12.2013 11:13 -0,3 C 94 % 1024,2 hPa 0,0 l/m 4,2 km/h (1 Bft) N-NO 22 -1,1 C -1,4 C 0,0 km/h (0 Bft)
04.12.2013 11:15 -0,3 C 94 % 1024,2 hPa 0,0 l/m 4,2 km/h (1 Bft) N-NO 22 -1,1 C -1,4 C 0,0 km/h (0 Bft)
04.12.2013 11:24 -0,9 C 94 % 1023,9 hPa 0,0 l/m 0,2 km/h (0 Bft) N-NO 22 -1,7 C -0,2 C 0,0 km/h (0 Bft)
04.12.2013 11:25 -0,9 C 94 % 1023,9 hPa 0,0 l/m 0,2 km/h (0 Bft) N-NO 22 -1,7 C -0,2 C 0,0 km/h (0 Bft)
04.12.2013 11:35 -0,1 C 94 % 1023,9 hPa 0,0 l/m 1,3 km/h (1 Bft) N 360 -0,9 C 0,0 C 0,0 km/h (0 Bft)
04.12.2013 11:40 -0,1 C 94 % 1023,9 hPa 0,0 l/m 1,1 km/h (1 Bft) N-NW 337 -0,9 C 0,2 C 0,0 km/h (0 Bft)
04.12.2013 11:46 0,1 C 95 % 1024,0 hPa 0,0 l/m 0,5 km/h (0 Bft) N-NO 22 -0,6 C 0,3 C 2,4 km/h (1 Bft)
04.12.2013 11:50 0,3 C 95 % 1024,0 hPa 0,0 l/m 0,5 km/h (0 Bft) NO 45 -0,4 C 0,3 C 0,0 km/h (0 Bft)
04.12.2013 11:57 0,9 C 95 % 1024,0 hPa 0,0 l/m 1,3 km/h (1 Bft) NO 45 0,2 C 0,5 C 3,9 km/h (1 Bft)
04.12.2013 12:00 0,9 C 95 % 1024,0 hPa 0,0 l/m 1,3 km/h (1 Bft) NO 45 0,2 C 0,5 C 3,9 km/h (1 Bft)
04.12.2013 12:08 1,4 C 95 % 1023,6 hPa 0,0 l/m 1,3 km/h (1 Bft) N-NO 22 0,7 C 1,1 C 0,0 km/h (0 Bft)
04.12.2013 12:10 1,4 C 95 % 1023,6 hPa 0,0 l/m 1,3 km/h (1 Bft) N-NO 22 0,7 C 1,1 C 0,0 km/h (0 Bft)
04.12.2013 12:19 2,1 C 94 % 1023,6 hPa 0,0 l/m 1,4 km/h (1 Bft) NO 45 1,2 C 2,3 C 4,0 km/h (1 Bft)
04.12.2013 12:20 2,1 C 94 % 1023,6 hPa 0,0 l/m 1,4 km/h (1 Bft) NO 45 1,2 C 2,3 C 4,0 km/h (1 Bft)
04.12.2013 12:30 1,9 C 94 % 1023,6 hPa 0,0 l/m 1,3 km/h (1 Bft) S-SW 202 1,0 C 3,5 C 9,7 km/h (2 Bft)
04.12.2013 12:35 2,5 C 93 % 1023,6 hPa 0,0 l/m 4,5 km/h (1 Bft) S 180 1,5 C 4,5 C 12,1 km/h (2 Bft)
04.12.2013 12:41 2,8 C 92 % 1023,6 hPa 0,0 l/m 6,9 km/h (2 Bft) S 180 1,6 C 4,3 C 10,3 km/h (2 Bft)
04.12.2013 12:45 2,9 C 90 % 1023,6 hPa 0,0 l/m 7,1 km/h (2 Bft) S 180 1,4 C 5,0 C 8,2 km/h (2 Bft)
04.12.2013 12:52 3,7 C 86 % 1023,6 hPa 0,0 l/m 6,9 km/h (2 Bft) S 180 1,6 C 6,0 C 7,6 km/h (2 Bft)
04.12.2013 12:55 3,7 C 86 % 1023,6 hPa 0,0 l/m 6,9 km/h (2 Bft) S 180 1,6 C 6,0 C 7,6 km/h (2 Bft)
04.12.2013 13:03 3,9 C 83 % 1023,4 hPa 0,0 l/m 6,1 km/h (2 Bft) S 180 1,3 C 7,0 C 3,4 km/h (1 Bft)
04.12.2013 13:05 3,9 C 83 % 1023,4 hPa 0,0 l/m 6,1 km/h (2 Bft) S 180 1,3 C 7,0 C 3,4 km/h (1 Bft)
04.12.2013 13:14 3,9 C 85 % 1023,4 hPa 0,0 l/m 4,3 km/h (1 Bft) S 180 1,6 C 7,4 C 6,0 km/h (2 Bft)
04.12.2013 13:15 3,9 C 85 % 1023,4 hPa 0,0 l/m 4,3 km/h (1 Bft) S 180 1,6 C 7,4 C 6,0 km/h (2 Bft)
04.12.2013 13:25 3,9 C 85 % 1023,6 hPa 0,0 l/m 5,3 km/h (1 Bft) S 180 1,6 C 7,1 C 6,6 km/h (2 Bft)
04.12.2013 13:30 4,0 C 84 % 1023,6 hPa 0,0 l/m 5,6 km/h (1 Bft) S 180 1,5 C 6,9 C 7,6 km/h (2 Bft)
04.12.2013 13:36 4,1 C 83 % 1023,6 hPa 0,0 l/m 5,8 km/h (2 Bft) S-SO 157 1,5 C 8,4 C 6,8 km/h (2 Bft)
04.12.2013 13:40 4,2 C 82 % 1023,6 hPa 0,0 l/m 5,5 km/h (1 Bft) SO 135 1,4 C 9,7 C 5,6 km/h (1 Bft)
04.12.2013 13:47 4,6 C 83 % 1023,5 hPa 0,0 l/m 4,7 km/h (1 Bft) S 180 2,0 C 11,8 C 6,1 km/h (2 Bft)
04.12.2013 13:50 4,6 C 83 % 1023,5 hPa 0,0 l/m 4,7 km/h (1 Bft) S 180 2,0 C 11,8 C 6,1 km/h (2 Bft)
04.12.2013 13:58 5,9 C 74 % 1023,5 hPa 0,0 l/m 4,3 km/h (1 Bft) S 180 1,6 C 12,6 C 5,1 km/h (1 Bft)
04.12.2013 14:00 5,9 C 74 % 1023,5 hPa 0,0 l/m 4,3 km/h (1 Bft) S 180 1,6 C 12,6 C 5,1 km/h (1 Bft)
04.12.2013 14:09 5,8 C 76 % 1023,7 hPa 0,0 l/m 4,7 km/h (1 Bft) S 180 1,9 C 12,6 C 4,8 km/h (1 Bft)
04.12.2013 14:10 5,8 C 76 % 1023,7 hPa 0,0 l/m 4,7 km/h (1 Bft) S 180 1,9 C 12,6 C 4,8 km/h (1 Bft)
04.12.2013 14:20 5,5 C 77 % 1023,7 hPa 0,0 l/m 4,7 km/h (1 Bft) S 180 1,8 C 11,2 C 6,3 km/h (2 Bft)
04.12.2013 14:25 5,5 C 78 % 1023,6 hPa 0,0 l/m 4,2 km/h (1 Bft) O-SO 112 2,0 C 10,5 C 4,5 km/h (1 Bft)
04.12.2013 14:31 5,6 C 79 % 1023,6 hPa 0,0 l/m 4,2 km/h (1 Bft) O-SO 112 2,3 C 11,0 C 5,5 km/h (1 Bft)
04.12.2013 14:35 5,7 C 79 % 1023,6 hPa 0,0 l/m 4,3 km/h (1 Bft) NO 45 2,3 C 11,1 C 1,8 km/h (1 Bft)
04.12.2013 14:42 5,5 C 79 % 1023,6 hPa 0,0 l/m 4,0 km/h (1 Bft) O-SO 112 2,2 C 10,8 C 3,4 km/h (1 Bft)
04.12.2013 14:45 5,6 C 79 % 1023,8 hPa 0,0 l/m 3,2 km/h (1 Bft) S 180 2,3 C 9,8 C 3,2 km/h (1 Bft)
04.12.2013 14:53 4,2 C 83 % 1023,8 hPa 0,0 l/m 0,8 km/h (0 Bft) W 270 1,6 C 9,2 C 0,0 km/h (0 Bft)
04.12.2013 14:55 4,2 C 83 % 1023,8 hPa 0,0 l/m 0,8 km/h (0 Bft) W 270 1,6 C 9,2 C 0,0 km/h (0 Bft)
04.12.2013 15:04 4,8 C 83 % 1023,8 hPa 0,0 l/m 2,6 km/h (1 Bft) NO 45 2,2 C 7,9 C 2,9 km/h (1 Bft)
04.12.2013 15:05 4,8 C 83 % 1023,8 hPa 0,0 l/m 2,6 km/h (1 Bft) NO 45 2,2 C 7,9 C 2,9 km/h (1 Bft)
04.12.2013 15:15 4,3 C 83 % 1023,8 hPa 0,0 l/m 1,1 km/h (1 Bft) O 90 1,7 C 6,4 C 0,0 km/h (0 Bft)
04.12.2013 15:20 3,8 C 83 % 1023,8 hPa 0,0 l/m 0,6 km/h (0 Bft) S-SW 202 1,2 C 5,9 C 2,3 km/h (1 Bft)
04.12.2013 15:26 3,3 C 83 % 1023,9 hPa 0,0 l/m 0,2 km/h (0 Bft) S-SO 157 0,7 C 5,2 C 0,0 km/h (0 Bft)
04.12.2013 15:30 3,4 C 83 % 1023,9 hPa 0,0 l/m 0,6 km/h (0 Bft) N-NO 22 0,8 C 4,8 C 4,2 km/h (1 Bft)
04.12.2013 15:37 3,4 C 85 % 1023,9 hPa 0,0 l/m 1,6 km/h (1 Bft) O-NO 67 1,1 C 4,4 C 2,9 km/h (1 Bft)
04.12.2013 15:40 2,9 C 86 % 1023,9 hPa 0,0 l/m 1,9 km/h (1 Bft) N-NO 22 0,8 C 4,1 C 2,1 km/h (1 Bft)
04.12.2013 15:47 2,4 C 85 % 1024,2 hPa 0,0 l/m 2,1 km/h (1 Bft) O-NO 67 0,1 C 3,4 C 6,4 km/h (2 Bft)
04.12.2013 15:50 2,4 C 85 % 1024,2 hPa 0,0 l/m 2,1 km/h (1 Bft) O-NO 67 0,1 C 3,4 C 6,4 km/h (2 Bft)
04.12.2013 15:58 1,9 C 86 % 1024,2 hPa 0,0 l/m 2,4 km/h (1 Bft) O 90 -0,2 C 2,5 C 0,0 km/h (0 Bft)
04.12.2013 16:00 1,9 C 86 % 1024,2 hPa 0,0 l/m 2,4 km/h (1 Bft) O 90 -0,2 C 2,5 C 0,0 km/h (0 Bft)
04.12.2013 16:09 1,2 C 86 % 1024,2 hPa 0,0 l/m 0,8 km/h (0 Bft) O-SO 112 -0,9 C 1,5 C 0,0 km/h (0 Bft)
04.12.2013 16:10 1,2 C 86 % 1024,2 hPa 0,0 l/m 0,8 km/h (0 Bft) O-SO 112 -0,9 C 1,5 C 0,0 km/h (0 Bft)
04.12.2013 16:20 0,5 C 86 % 1024,2 hPa 0,0 l/m 1,9 km/h (1 Bft) S 180 -1,6 C 0,9 C 1,8 km/h (1 Bft)
04.12.2013 16:25 0,2 C 86 % 1024,5 hPa 0,0 l/m 1,1 km/h (1 Bft) O 90 -1,9 C 0,5 C 0,0 km/h (0 Bft)
04.12.2013 16:31 0,3 C 87 % 1024,5 hPa 0,0 l/m 1,1 km/h (1 Bft) O 90 -1,6 C 0,2 C 5,5 km/h (1 Bft)
04.12.2013 16:35 -0,1 C 87 % 1024,5 hPa 0,0 l/m 2,1 km/h (1 Bft) N 360 -2,0 C 0,0 C 2,6 km/h (1 Bft)
04.12.2013 16:42 -1,2 C 88 % 1024,6 hPa 0,0 l/m 1,8 km/h (1 Bft) N-NW 337 -2,9 C -0,5 C 3,1 km/h (1 Bft)
04.12.2013 16:45 -1,2 C 88 % 1024,6 hPa 0,0 l/m 1,8 km/h (1 Bft) N-NW 337 -2,9 C -0,5 C 3,1 km/h (1 Bft)
04.12.2013 16:53 -1,9 C 88 % 1024,6 hPa 0,0 l/m 3,4 km/h (1 Bft) N-NW 337 -3,6 C -1,6 C 2,7 km/h (1 Bft)
04.12.2013 16:55 -1,9 C 88 % 1024,6 hPa 0,0 l/m 3,4 km/h (1 Bft) N-NW 337 -3,6 C -1,6 C 2,7 km/h (1 Bft)
04.12.2013 17:04 -1,7 C 89 % 1024,7 hPa 0,0 l/m 2,6 km/h (1 Bft) N 360 -3,3 C -1,6 C 3,9 km/h (1 Bft)
04.12.2013 17:05 -1,7 C 89 % 1024,7 hPa 0,0 l/m 2,6 km/h (1 Bft) N 360 -3,3 C -1,6 C 3,9 km/h (1 Bft)
04.12.2013 17:15 -2,0 C 90 % 1024,7 hPa 0,0 l/m 1,0 km/h (0 Bft) N-NW 337 -3,4 C -1,8 C 3,1 km/h (1 Bft)
04.12.2013 17:20 -2,4 C 90 % 1024,7 hPa 0,0 l/m 1,1 km/h (1 Bft) N-NO 22 -3,8 C -1,9 C 2,6 km/h (1 Bft)
04.12.2013 17:26 -2,4 C 90 % 1025,1 hPa 0,0 l/m 1,9 km/h (1 Bft) NO 45 -3,8 C -2,1 C 5,5 km/h (1 Bft)
04.12.2013 17:30 -2,3 C 91 % 1025,1 hPa 0,0 l/m 2,6 km/h (1 Bft) NO 45 -3,6 C -2,4 C 5,5 km/h (1 Bft)
04.12.2013 17:37 -2,3 C 92 % 1025,1 hPa 0,0 l/m 2,6 km/h (1 Bft) N 360 -3,4 C -2,6 C 0,0 km/h (0 Bft)
04.12.2013 17:40 -2,3 C 92 % 1025,1 hPa 0,0 l/m 2,6 km/h (1 Bft) N 360 -3,4 C -2,6 C 0,0 km/h (0 Bft)
04.12.2013 17:48 -2,2 C 92 % 1025,2 hPa 0,0 l/m 2,6 km/h (1 Bft) N-NW 337 -3,3 C -2,6 C 3,4 km/h (1 Bft)
04.12.2013 17:50 -2,2 C 92 % 1025,2 hPa 0,0 l/m 2,6 km/h (1 Bft) N-NW 337 -3,3 C -2,6 C 3,4 km/h (1 Bft)
04.12.2013 17:59 -2,3 C 93 % 1025,2 hPa 0,0 l/m 3,7 km/h (1 Bft) N-NO 22 -3,3 C -3,4 C 8,0 km/h (2 Bft)
04.12.2013 18:00 -2,3 C 93 % 1025,2 hPa 0,0 l/m 3,7 km/h (1 Bft) N-NO 22 -3,3 C -3,4 C 8,0 km/h (2 Bft)
04.12.2013 18:10 -2,6 C 93 % 1025,4 hPa 0,0 l/m 4,2 km/h (1 Bft) N-NW 337 -3,6 C -3,7 C 4,2 km/h (1 Bft)
04.12.2013 18:15 -2,4 C 93 % 1025,4 hPa 0,0 l/m 3,5 km/h (1 Bft) N-NW 337 -3,4 C -3,3 C 3,7 km/h (1 Bft)
04.12.2013 18:21 -2,2 C 93 % 1025,4 hPa 0,0 l/m 4,2 km/h (1 Bft) N 360 -3,2 C -3,6 C 5,6 km/h (1 Bft)
04.12.2013 18:25 -2,1 C 94 % 1025,6 hPa 0,0 l/m 4,7 km/h (1 Bft) N 360 -2,9 C -3,7 C 2,9 km/h (1 Bft)
04.12.2013 18:32 -2,1 C 94 % 1025,6 hPa 0,0 l/m 3,7 km/h (1 Bft) N 360 -2,9 C -3,1 C 5,8 km/h (2 Bft)
04.12.2013 18:35 -2,1 C 94 % 1025,6 hPa 0,0 l/m 3,7 km/h (1 Bft) N 360 -2,9 C -3,1 C 5,8 km/h (2 Bft)
04.12.2013 18:43 -2,0 C 94 % 1025,9 hPa 0,0 l/m 3,5 km/h (1 Bft) NW 315 -2,8 C -2,9 C 3,2 km/h (1 Bft)
04.12.2013 18:45 -2,0 C 94 % 1025,9 hPa 0,0 l/m 3,5 km/h (1 Bft) NW 315 -2,8 C -2,9 C 3,2 km/h (1 Bft)
04.12.2013 18:54 -2,0 C 94 % 1025,9 hPa 0,0 l/m 3,9 km/h (1 Bft) S-SO 157 -2,8 C -3,1 C 6,3 km/h (2 Bft)
04.12.2013 18:55 -2,0 C 94 % 1025,9 hPa 0,0 l/m 3,9 km/h (1 Bft) S-SO 157 -2,8 C -3,1 C 6,3 km/h (2 Bft)
04.12.2013 19:05 -1,9 C 95 % 1025,9 hPa 0,0 l/m 3,1 km/h (1 Bft) NW 315 -2,6 C -2,6 C 2,9 km/h (1 Bft)
04.12.2013 19:10 -1,9 C 95 % 1025,9 hPa 0,0 l/m 2,7 km/h (1 Bft) N 360 -2,6 C -2,3 C 4,3 km/h (1 Bft)
04.12.2013 19:16 -2,0 C 95 % 1025,9 hPa 0,0 l/m 2,1 km/h (1 Bft) N-NO 22 -2,7 C -1,9 C 0,0 km/h (0 Bft)
04.12.2013 19:20 -2,0 C 95 % 1025,9 hPa 0,0 l/m 2,3 km/h (1 Bft) N-NW 337 -2,7 C -1,9 C 0,0 km/h (0 Bft)
04.12.2013 19:27 -1,9 C 95 % 1025,9 hPa 0,0 l/m 1,1 km/h (1 Bft) N-NW 337 -2,6 C -1,9 C 0,0 km/h (0 Bft)
04.12.2013 19:30 -1,9 C 95 % 1025,9 hPa 0,0 l/m 1,1 km/h (1 Bft) W 270 -2,6 C -1,9 C 5,3 km/h (1 Bft)
04.12.2013 19:38 -1,9 C 95 % 1025,9 hPa 0,0 l/m 3,4 km/h (1 Bft) W-NW 292 -2,6 C -2,8 C 3,5 km/h (1 Bft)
04.12.2013 19:40 -1,9 C 95 % 1025,9 hPa 0,0 l/m 3,4 km/h (1 Bft) W-NW 292 -2,6 C -2,8 C 3,5 km/h (1 Bft)
04.12.2013 19:49 -2,0 C 95 % 1026,2 hPa 0,0 l/m 2,7 km/h (1 Bft) N-NW 337 -2,7 C -2,3 C 2,9 km/h (1 Bft)
04.12.2013 19:50 -2,0 C 95 % 1026,2 hPa 0,0 l/m 2,7 km/h (1 Bft) N-NW 337 -2,7 C -2,3 C 2,9 km/h (1 Bft)
04.12.2013 20:00 -1,9 C 95 % 1026,2 hPa 0,0 l/m 1,6 km/h (1 Bft) N 360 -2,6 C -1,9 C 2,9 km/h (1 Bft)
04.12.2013 20:05 -1,9 C 95 % 1026,3 hPa 0,0 l/m 1,3 km/h (1 Bft) N 360 -2,6 C -1,9 C 0,0 km/h (0 Bft)
04.12.2013 20:11 -1,9 C 95 % 1026,3 hPa 0,0 l/m 0,6 km/h (0 Bft) N 360 -2,6 C -1,9 C 0,0 km/h (0 Bft)
04.12.2013 20:15 -1,9 C 95 % 1026,3 hPa 0,0 l/m 0,3 km/h (0 Bft) N-NW 337 -2,6 C -1,9 C 0,0 km/h (0 Bft)
04.12.2013 20:22 -1,9 C 95 % 1026,3 hPa 0,0 l/m 0,3 km/h (0 Bft) NW 315 -2,6 C -1,9 C 0,0 km/h (0 Bft)
04.12.2013 20:25 -2,0 C 95 % 1026,1 hPa 0,0 l/m 0,5 km/h (0 Bft) N 360 -2,7 C -1,9 C 3,7 km/h (1 Bft)
04.12.2013 20:33 -2,0 C 95 % 1026,1 hPa 0,0 l/m 1,8 km/h (1 Bft) NW 315 -2,7 C -2,0 C 1,8 km/h (1 Bft)
04.12.2013 20:35 -2,0 C 95 % 1026,1 hPa 0,0 l/m 1,8 km/h (1 Bft) NW 315 -2,7 C -2,0 C 1,8 km/h (1 Bft)
04.12.2013 20:44 -2,1 C 95 % 1026,2 hPa 0,0 l/m 1,9 km/h (1 Bft) N 360 -2,8 C -2,0 C 2,6 km/h (1 Bft)
04.12.2013 20:45 -2,1 C 95 % 1026,2 hPa 0,0 l/m 1,9 km/h (1 Bft) N 360 -2,8 C -2,0 C 2,6 km/h (1 Bft)
04.12.2013 20:54 -2,1 C 95 % 1026,2 hPa 0,0 l/m 1,0 km/h (0 Bft) W-NW 292 -2,8 C -2,1 C 0,0 km/h (0 Bft)
04.12.2013 20:55 -2,1 C 95 % 1026,2 hPa 0,0 l/m 1,0 km/h (0 Bft) W-NW 292 -2,8 C -2,1 C 0,0 km/h (0 Bft)
04.12.2013 21:05 -2,1 C 95 % 1026,1 hPa 0,0 l/m 0,0 km/h (0 Bft) NO 45 -2,8 C -2,1 C 0,0 km/h (0 Bft)
04.12.2013 21:10 -2,1 C 95 % 1026,1 hPa 0,0 l/m 0,2 km/h (0 Bft) S 180 -2,8 C -2,1 C 0,0 km/h (0 Bft)
04.12.2013 21:16 -2,1 C 95 % 1026,1 hPa 0,0 l/m 0,2 km/h (0 Bft) S-SO 157 -2,8 C -2,1 C 2,3 km/h (1 Bft)
04.12.2013 21:20 -2,1 C 95 % 1026,1 hPa 0,0 l/m 1,3 km/h (1 Bft) S 180 -2,8 C -2,1 C 3,7 km/h (1 Bft)
04.12.2013 21:27 -2,1 C 95 % 1026,0 hPa 0,0 l/m 2,4 km/h (1 Bft) O-SO 112 -2,8 C -2,3 C 3,5 km/h (1 Bft)
04.12.2013 21:30 -2,1 C 95 % 1026,0 hPa 0,0 l/m 2,4 km/h (1 Bft) O-SO 112 -2,8 C -2,3 C 3,5 km/h (1 Bft)
04.12.2013 21:38 -2,1 C 95 % 1026,0 hPa 0,0 l/m 1,9 km/h (1 Bft) S-SO 157 -2,8 C -2,1 C 2,6 km/h (1 Bft)
04.12.2013 21:40 -2,1 C 95 % 1026,0 hPa 0,0 l/m 1,9 km/h (1 Bft) S-SO 157 -2,8 C -2,1 C 2,6 km/h (1 Bft)
04.12.2013 21:49 -2,1 C 95 % 1026,1 hPa 0,0 l/m 1,3 km/h (1 Bft) S 180 -2,8 C -2,1 C 5,8 km/h (2 Bft)
04.12.2013 21:50 -2,1 C 95 % 1026,1 hPa 0,0 l/m 1,3 km/h (1 Bft) S 180 -2,8 C -2,1 C 5,8 km/h (2 Bft)
04.12.2013 22:00 -2,3 C 95 % 1026,1 hPa 0,0 l/m 3,7 km/h (1 Bft) S-SW 202 -3,0 C -3,4 C 3,5 km/h (1 Bft)
04.12.2013 22:05 -2,4 C 95 % 1026,2 hPa 0,0 l/m 3,2 km/h (1 Bft) SW 225 -3,1 C -3,1 C 5,5 km/h (1 Bft)
04.12.2013 22:11 -2,4 C 95 % 1026,2 hPa 0,0 l/m 3,5 km/h (1 Bft) SW 225 -3,1 C -3,3 C 2,4 km/h (1 Bft)
04.12.2013 22:15 -2,4 C 95 % 1026,2 hPa 0,0 l/m 3,7 km/h (1 Bft) S 180 -3,1 C -3,4 C 4,0 km/h (1 Bft)
04.12.2013 22:22 -2,5 C 95 % 1026,2 hPa 0,0 l/m 3,1 km/h (1 Bft) S 180 -3,2 C -3,1 C 0,0 km/h (0 Bft)
04.12.2013 22:25 -2,5 C 95 % 1026,2 hPa 0,0 l/m 3,1 km/h (1 Bft) S 180 -3,2 C -3,1 C 0,0 km/h (0 Bft)
04.12.2013 22:33 -2,5 C 95 % 1026,2 hPa 0,0 l/m 0,0 km/h (0 Bft) SW 225 -3,2 C -2,4 C 0,0 km/h (0 Bft)
04.12.2013 22:35 -2,5 C 95 % 1026,2 hPa 0,0 l/m 0,0 km/h (0 Bft) SW 225 -3,2 C -2,4 C 0,0 km/h (0 Bft)
04.12.2013 22:44 -2,4 C 95 % 1026,2 hPa 0,0 l/m 0,2 km/h (0 Bft) SW 225 -3,1 C -2,4 C 0,0 km/h (0 Bft)
04.12.2013 22:45 -2,4 C 95 % 1026,2 hPa 0,0 l/m 0,2 km/h (0 Bft) SW 225 -3,1 C -2,4 C 0,0 km/h (0 Bft)
04.12.2013 22:55 -2,4 C 95 % 1026,2 hPa 0,0 l/m 3,2 km/h (1 Bft) W-SW 247 -3,1 C -3,1 C 5,0 km/h (1 Bft)
04.12.2013 23:00 -2,4 C 95 % 1026,2 hPa 0,0 l/m 3,2 km/h (1 Bft) S-SW 202 -3,1 C -3,1 C 0,0 km/h (0 Bft)
04.12.2013 23:06 -2,4 C 95 % 1026,6 hPa 0,0 l/m 2,1 km/h (1 Bft) S-SO 157 -3,1 C -2,3 C 2,9 km/h (1 Bft)
04.12.2013 23:10 -2,4 C 95 % 1026,6 hPa 0,0 l/m 1,8 km/h (1 Bft) SO 135 -3,1 C -2,3 C 2,3 km/h (1 Bft)
04.12.2013 23:17 -2,3 C 95 % 1026,6 hPa 0,0 l/m 2,6 km/h (1 Bft) S 180 -3,0 C -2,6 C 0,0 km/h (0 Bft)
04.12.2013 23:20 -2,3 C 95 % 1026,6 hPa 0,0 l/m 2,6 km/h (1 Bft) S 180 -3,0 C -2,6 C 0,0 km/h (0 Bft)
04.12.2013 23:28 -2,1 C 95 % 1026,8 hPa 0,0 l/m 2,9 km/h (1 Bft) O 90 -2,8 C -2,8 C 7,2 km/h (2 Bft)
04.12.2013 23:30 -2,1 C 95 % 1026,8 hPa 0,0 l/m 2,9 km/h (1 Bft) O 90 -2,8 C -2,8 C 7,2 km/h (2 Bft)
04.12.2013 23:39 -1,9 C 95 % 1026,8 hPa 0,0 l/m 5,8 km/h (2 Bft) O-SO 112 -2,6 C -4,2 C 4,7 km/h (1 Bft)
04.12.2013 23:40 -1,9 C 95 % 1026,8 hPa 0,0 l/m 5,8 km/h (2 Bft) O-SO 112 -2,6 C -4,2 C 4,7 km/h (1 Bft)
04.12.2013 23:50 -1,7 C 96 % 1026,8 hPa 0,0 l/m 5,0 km/h (1 Bft) S-SO 157 -2,3 C -3,6 C 2,4 km/h (1 Bft)
04.12.2013 23:55 -1,7 C 96 % 1026,8 hPa 0,0 l/m 4,3 km/h (1 Bft) O-SO 112 -2,3 C -3,2 C 6,6 km/h (2 Bft)
_ Min-Zeit 07:15 14:00 13:15 - 22:35 - - 07:15 06:06 23:20
Minimum _ -7,2 C 74 % 1023,4 hPa - 0,0 km/h (0 Bft) - - -8,7 C -7,7 C 0,0 km/h (0 Bft)
_ Max-Zeit 14:00 23:55 23:55 23:55 12:45 - - 14:35 14:10 12:35
Maximum _ 5,9 C 96 % 1026,8 hPa 0,0 l/m 7,1 km/h
S (2 Bft)
- - 2,3 C 12,6 C 12,1 km/h
S (2 Bft)
Durchschnitt _ -2,4 C 91 % 1024,7 hPa #0,0 l/m 1,9 km/h (1 Bft) S - -3,7 C -2,1 C 2,5 km/h (1 Bft)